Time;durP1;ratioP1;P1;durP2;ratioP2;P2;SDS_P1;SDS_P2;PMS_P1;PMS_P2;Temp;Humidity;BMP_temperature;BMP_pressure;BME280_temperature;BME280_humidity;BME280_pressure;Samples;Min_cycle;Max_cycle;Signal;HPM_P1;HPM_P2
2023/06/18 00:00:56;;;;;;;7.82;6.10;;;20.70;35.00;;;22.58;29.77;97407.50;5079574;28;20059;-50
2023/06/18 00:03:25;;;;;;;8.57;7.22;;;20.70;35.10;;;22.54;29.95;97410.97;5082167;28;20504;-45
2023/06/18 00:05:54;;;;;;;8.40;6.00;;;20.60;35.10;;;22.48;29.97;97407.34;5082575;28;20143;-45
2023/06/18 00:08:23;;;;;;;7.65;6.47;;;20.60;35.40;;;22.44;30.10;97403.47;5079409;28;20044;-45
2023/06/18 00:10:50;;;;;;;7.90;6.85;;;20.60;35.40;;;22.42;30.10;97403.69;5079262;28;20051;-47
2023/06/18 00:13:18;;;;;;;8.25;6.10;;;20.60;35.20;;;22.42;29.86;97398.28;5081099;28;20051;-46
2023/06/18 00:15:45;;;;;;;7.93;6.97;;;20.60;35.10;;;22.37;30.40;97394.66;5082578;28;20469;-49
2023/06/18 00:18:13;;;;;;;10.32;7.00;;;20.50;35.30;;;22.31;30.30;97391.00;5080972;28;20040;-49
2023/06/18 00:20:41;;;;;;;7.80;7.00;;;20.50;35.50;;;22.30;30.47;97392.09;5078559;28;20048;-47
2023/06/18 00:23:09;;;;;;;8.00;6.15;;;20.50;35.60;;;22.31;30.28;97393.72;5079514;28;20381;-46
2023/06/18 00:25:36;;;;;;;7.55;6.28;;;20.50;35.80;;;22.30;30.48;97389.38;5060530;28;20044;-48
2023/06/18 00:28:04;;;;;;;8.27;6.65;;;20.50;35.70;;;22.29;30.42;97395.03;5052378;28;20087;-48
2023/06/18 00:30:32;;;;;;;10.63;6.35;;;20.40;35.80;;;22.27;30.42;97395.28;5078944;28;20048;-47
2023/06/18 00:33:00;;;;;;;7.80;6.72;;;20.40;35.90;;;22.28;30.62;97396.13;5079156;28;20496;-46
2023/06/18 00:35:28;;;;;;;7.40;6.60;;;20.40;36.00;;;22.27;30.44;97394.47;5082013;28;20056;-46
2023/06/18 00:37:55;;;;;;;8.95;6.40;;;20.40;35.90;;;22.27;30.47;97391.75;5086389;28;20048;-46
2023/06/18 00:40:23;;;;;;;9.20;6.95;;;20.40;36.00;;;22.26;30.42;97390.94;5084485;28;20400;-47
2023/06/18 00:42:52;;;;;;;11.35;6.82;;;20.50;35.90;;;22.27;30.70;97394.47;5056252;28;20507;-45
2023/06/18 00:45:20;;;;;;;8.73;6.20;;;20.50;35.80;;;22.26;30.96;97387.41;5084154;28;20492;-45
2023/06/18 00:47:48;;;;;;;7.32;5.60;;;20.50;35.90;;;22.26;30.89;97382.00;5062206;28;20416;-47
2023/06/18 00:50:17;;;;;;;7.78;6.97;;;20.50;36.00;;;22.23;30.59;97384.06;5047884;28;20048;-47
2023/06/18 00:52:47;;;;;;;8.50;5.68;;;20.40;36.10;;;22.17;30.74;97379.63;5056858;28;20421;-47
2023/06/18 00:55:20;;;;;;;6.82;6.15;;;20.40;36.40;;;22.14;31.23;97382.81;5074275;28;20283;-48
2023/06/18 00:57:49;;;;;;;7.45;6.65;;;20.30;36.70;;;22.11;31.28;97382.47;5056789;28;20048;-46
2023/06/18 01:00:20;;;;;;;8.55;6.78;;;20.20;36.60;;;22.07;30.99;97381.31;5073996;28;20048;-47
2023/06/18 01:02:49;;;;;;;8.73;6.53;;;20.20;36.90;;;22.00;30.81;97384.16;5074098;28;20052;-46
2023/06/18 01:05:19;;;;;;;7.82;7.03;;;20.10;36.90;;;21.94;31.48;97388.66;5083135;28;20052;-46
2023/06/18 01:07:48;;;;;;;7.97;7.18;;;20.10;37.10;;;21.89;31.63;97385.84;5083976;28;20522;-48
2023/06/18 01:10:20;;;;;;;7.20;6.13;;;20.00;37.30;;;21.82;31.36;97377.84;5081849;28;20257;-46
2023/06/18 01:12:49;;;;;;;10.70;7.38;;;20.00;37.60;;;21.79;31.87;97381.06;5056901;28;20488;-46
2023/06/18 01:15:20;;;;;;;8.95;6.97;;;19.90;37.60;;;21.75;32.07;97377.19;5056915;28;20048;-46
2023/06/18 01:17:51;;;;;;;8.48;6.47;;;19.90;37.80;;;21.73;31.88;97378.47;5084561;28;20496;-46
2023/06/18 01:20:19;;;;;;;8.90;7.15;;;19.80;38.00;;;21.68;31.87;97379.19;5084669;28;20040;-47
2023/06/18 01:23:01;;;;;;;6.93;6.32;;;19.80;38.00;;;21.63;32.27;97362.81;5055383;28;20040;-46
2023/06/18 01:25:36;;;;;;;7.93;6.72;;;19.80;39.10;;;21.60;32.10;97368.72;5057342;28;20060;-50
2023/06/18 01:28:07;;;;;;;9.38;6.30;;;19.70;39.00;;;21.55;32.13;97374.03;5043465;28;20044;-49
2023/06/18 01:30:36;;;;;;;7.07;6.45;;;19.70;38.60;;;21.52;32.60;97372.63;5034239;28;20040;-47
2023/06/18 01:33:04;;;;;;;7.97;6.65;;;19.60;38.60;;;21.49;32.40;97356.84;5059909;28;20519;-46
2023/06/18 01:35:32;;;;;;;7.88;6.55;;;19.60;38.50;;;21.47;32.34;97364.38;5084316;28;20492;-46
2023/06/18 01:38:36;;;;;;;8.43;6.15;;;19.60;38.50;;;21.42;32.72;97366.94;5060783;28;20041;-48
2023/06/18 01:41:03;;;;;;;8.55;6.82;;;19.60;39.80;;;;;;5058488;28;20049;-45
2023/06/18 01:43:55;;;;;;;9.35;6.80;;;19.40;38.90;;;21.29;32.80;97370.75;5057726;28;20085;-46
2023/06/18 01:46:28;;;;;;;9.25;7.30;;;19.30;39.50;;;21.20;32.62;97367.56;5043673;28;20060;-47
2023/06/18 01:49:06;;;;;;;8.30;7.20;;;19.20;39.80;;;21.13;33.03;97375.00;5043921;28;20048;-46
2023/06/18 01:51:37;;;;;;;9.00;6.60;;;19.10;40.10;;;21.11;32.85;97373.56;5047243;28;20419;-46
2023/06/18 01:54:06;;;;;;;7.22;6.53;;;19.10;39.70;;;21.11;32.73;97371.69;5054483;28;20040;-48
2023/06/18 01:56:34;;;;;;;9.48;6.80;;;19.10;39.50;;;21.12;32.89;97373.31;5058012;28;20048;-48
2023/06/18 01:59:03;;;;;;;8.10;7.15;;;19.20;39.30;;;21.12;33.16;97370.63;5060464;28;20045;-47
2023/06/18 02:01:31;;;;;;;8.77;7.45;;;19.20;39.30;;;21.10;32.99;97369.22;5083548;28;20044;-45
2023/06/18 02:03:58;;;;;;;9.95;7.80;;;19.20;39.30;;;21.07;33.26;97370.50;5060651;28;20049;-47
2023/06/18 02:06:26;;;;;;;7.95;6.43;;;19.20;39.70;;;21.01;33.42;97366.88;5081973;28;20044;-47
2023/06/18 02:08:54;;;;;;;8.85;7.18;;;19.10;40.30;;;20.95;33.66;97365.06;5060794;28;20048;-45
2023/06/18 02:11:22;;;;;;;8.48;7.38;;;18.90;40.90;;;20.89;33.85;97367.91;5055487;28;20052;-48
2023/06/18 02:13:50;;;;;;;10.38;7.68;;;18.80;41.40;;;20.80;34.41;97376.38;5084777;28;20044;-46
2023/06/18 02:16:18;;;;;;;9.00;7.32;;;18.70;41.90;;;20.73;34.36;97372.94;5065883;28;20059;-47
2023/06/18 02:18:45;;;;;;;9.80;6.90;;;18.60;42.20;;;20.66;34.79;97369.50;5080836;28;20048;-47
2023/06/18 02:21:13;;;;;;;8.55;7.70;;;18.50;42.70;;;20.59;35.03;97371.50;5054665;28;20049;-45
2023/06/18 02:23:41;;;;;;;8.65;7.75;;;18.40;43.30;;;20.52;35.06;97370.75;5058090;28;20044;-45
2023/06/18 02:26:08;;;;;;;10.48;8.02;;;18.40;43.70;;;20.43;35.18;97367.56;5083897;28;20044;-49
2023/06/18 02:28:36;;;;;;;12.80;8.70;;;18.30;43.90;;;20.38;35.36;97370.97;5057660;28;20048;-46
2023/06/18 02:31:06;;;;;;;11.73;8.93;;;18.30;43.80;;;20.37;35.57;97368.47;5059686;28;20045;-46
2023/06/18 02:33:33;;;;;;;11.00;7.75;;;18.30;43.70;;;20.31;35.74;97372.09;5082987;28;20043;-49
2023/06/18 02:36:01;;;;;;;9.05;7.82;;;18.30;43.90;;;20.24;35.96;97374.91;5037692;28;20037;-46
2023/06/18 02:38:29;;;;;;;10.25;7.97;;;18.20;44.70;;;20.19;35.98;97372.06;5053039;28;20508;-46
2023/06/18 02:40:57;;;;;;;11.40;8.05;;;18.10;45.00;;;20.16;36.04;97375.22;5042735;28;20523;-45
2023/06/18 02:43:25;;;;;;;7.97;7.18;;;18.10;45.20;;;20.05;36.32;97374.94;5048022;28;20045;-46
2023/06/18 02:45:52;;;;;;;8.43;7.63;;;18.00;46.00;;;19.93;36.59;97371.38;5065579;28;20435;-46
2023/06/18 02:48:20;;;;;;;9.25;7.65;;;17.80;45.50;;;19.88;36.75;97368.53;5080186;28;20511;-44
2023/06/18 02:50:48;;;;;;;7.43;6.70;;;17.70;46.00;;;19.79;36.77;97364.47;5080610;28;20036;-46
2023/06/18 02:53:16;;;;;;;9.55;8.02;;;17.60;45.70;;;19.72;36.87;97364.56;5054734;28;20269;-48
2023/06/18 02:55:44;;;;;;;9.07;7.63;;;17.60;45.80;;;19.73;36.94;97366.22;5061892;28;20036;-45
2023/06/18 02:58:27;;;;;;;8.55;7.13;;;17.60;46.30;;;19.69;36.98;97364.97;5029877;28;20041;-46
2023/06/18 03:00:57;;;;;;;8.50;7.63;;;17.60;46.50;;;19.61;37.10;97365.28;5045800;28;20389;-48
2023/06/18 03:03:25;;;;;;;8.65;7.57;;;17.60;45.90;;;19.62;37.02;97362.38;5053557;28;20051;-46
2023/06/18 03:05:57;;;;;;;9.23;7.53;;;17.70;45.60;;;19.64;36.94;97368.38;5053455;28;20054;-49
2023/06/18 03:08:25;;;;;;;8.23;7.00;;;17.70;45.20;;;19.63;36.82;97372.09;5036905;28;20048;-47
2023/06/18 03:10:55;;;;;;;8.73;6.50;;;17.70;45.20;;;19.63;36.86;97374.00;5053533;28;20047;-50
2023/06/18 03:13:22;;;;;;;8.93;8.00;;;17.70;45.00;;;19.64;36.69;97375.66;5052956;28;20055;-47
2023/06/18 03:15:53;;;;;;;9.75;7.57;;;17.80;44.50;;;19.67;36.57;97365.19;5071810;28;20045;-45
2023/06/18 03:18:23;;;;;;;8.35;6.72;;;17.90;44.20;;;19.69;36.35;97370.38;5053513;28;20084;-48
2023/06/18 03:20:51;;;;;;;8.93;7.50;;;17.90;44.00;;;19.67;36.33;97370.59;5026135;28;20048;-47
2023/06/18 03:23:20;;;;;;;9.07;7.05;;;17.90;43.80;;;19.71;36.31;97378.25;5049051;28;20044;-47
2023/06/18 03:25:49;;;;;;;8.07;6.95;;;17.90;43.60;;;19.69;36.06;97383.88;5042014;28;20048;-46
2023/06/18 03:28:22;;;;;;;8.35;6.82;;;17.90;43.30;;;19.73;35.94;97376.19;5058833;28;20044;-47
2023/06/18 03:30:50;;;;;;;7.43;6.70;;;18.00;42.90;;;19.78;35.88;97384.44;5064365;28;20043;-46
2023/06/18 03:33:18;;;;;;;9.75;8.00;;;18.10;43.50;;;19.89;35.72;97383.69;5053862;28;20040;-47
2023/06/18 03:35:47;;;;;;;7.53;6.53;;;18.20;42.10;;;19.97;35.50;97383.38;5052807;28;20048;-45
2023/06/18 03:38:16;;;;;;;7.70;6.65;;;18.40;41.80;;;20.08;35.32;97379.06;5053038;28;20041;-47
2023/06/18 03:40:43;;;;;;;8.45;6.32;;;18.50;41.60;;;20.16;35.25;97375.22;5055721;28;20052;-47
2023/06/18 03:43:14;;;;;;;7.78;6.32;;;18.60;41.40;;;20.22;35.30;97385.09;5057937;28;20053;-46
2023/06/18 03:45:43;;;;;;;7.68;6.88;;;18.70;41.10;;;20.26;35.13;97381.72;5055042;28;20048;-45
2023/06/18 03:48:12;;;;;;;7.40;6.45;;;18.80;41.00;;;20.33;35.10;97375.41;5057882;28;20044;-47
2023/06/18 03:50:43;;;;;;;9.35;7.60;;;18.70;41.00;;;20.39;35.15;97382.59;5055319;28;20473;-46
2023/06/18 03:53:11;;;;;;;9.05;6.43;;;18.80;40.80;;;20.43;34.82;97384.63;5057408;28;20051;-46
2023/06/18 03:55:41;;;;;;;6.95;6.18;;;18.80;40.60;;;20.46;34.58;97383.31;5054525;28;20044;-46
2023/06/18 03:58:11;;;;;;;8.70;6.35;;;18.90;40.60;;;20.51;34.69;97382.63;5057896;28;20044;-47
2023/06/18 04:00:39;;;;;;;8.38;7.30;;;18.90;40.40;;;20.53;34.68;97385.91;5054149;28;20048;-46
2023/06/18 04:03:08;;;;;;;10.30;7.30;;;18.90;40.40;;;20.57;34.37;97387.94;5058806;28;20045;-46
2023/06/18 04:05:35;;;;;;;8.90;6.57;;;19.00;40.30;;;20.60;34.28;97383.97;5045462;28;20052;-45
2023/06/18 04:08:03;;;;;;;9.07;5.93;;;19.00;40.20;;;20.61;34.56;97380.22;5059012;28;20412;-45
2023/06/18 04:10:31;;;;;;;7.70;6.53;;;19.00;40.20;;;20.65;34.41;97384.09;5075161;28;20047;-46
2023/06/18 04:12:59;;;;;;;8.00;6.60;;;19.10;40.10;;;20.67;34.40;97384.69;5082818;28;20043;-45
2023/06/18 04:15:26;;;;;;;7.43;6.63;;;19.10;40.30;;;20.69;34.19;97388.00;5031772;28;20045;-47
2023/06/18 04:17:54;;;;;;;8.07;6.20;;;19.10;41.20;;;20.67;34.47;97384.69;5044111;28;20045;-46
2023/06/18 04:20:22;;;;;;;7.35;6.63;;;19.00;40.40;;;20.68;34.53;97388.22;5052869;28;20059;-46
2023/06/18 04:22:50;;;;;;;7.68;6.72;;;19.00;40.70;;;20.68;34.54;97380.91;5052400;28;20045;-49
2023/06/18 04:25:20;;;;;;;7.57;6.35;;;19.00;40.80;;;20.74;34.58;97385.41;5052961;28;20040;-48
2023/06/18 04:27:50;;;;;;;9.35;6.70;;;19.10;40.70;;;20.81;34.44;97382.59;5052229;28;20047;-45
2023/06/18 04:30:18;;;;;;;8.32;6.40;;;19.20;40.50;;;20.88;34.22;97383.31;5070913;28;20040;-48
2023/06/18 04:32:46;;;;;;;8.68;6.78;;;19.30;40.30;;;20.93;34.41;97380.72;5052734;28;20428;-49
2023/06/18 04:35:15;;;;;;;7.45;6.72;;;19.40;40.10;;;20.99;34.27;97374.38;5052456;28;20040;-45
2023/06/18 04:37:43;;;;;;;8.38;7.38;;;19.50;39.90;;;21.07;34.43;97378.59;5080298;28;20041;-45
2023/06/18 04:40:12;;;;;;;7.80;6.43;;;19.60;39.80;;;21.15;34.11;97382.84;5057992;28;20060;-49
2023/06/18 04:42:41;;;;;;;8.48;6.15;;;19.70;39.70;;;21.19;34.35;97382.16;5053916;28;20079;-45
2023/06/18 04:45:14;;;;;;;8.77;6.22;;;19.70;39.70;;;21.26;33.81;97373.09;5054843;28;20045;-45
2023/06/18 04:47:41;;;;;;;7.57;6.60;;;19.80;39.60;;;21.31;33.72;97375.91;5059146;28;20052;-47
2023/06/18 04:50:10;;;;;;;7.85;6.40;;;19.80;39.40;;;21.34;34.11;97368.13;5082373;28;20530;-46
2023/06/18 04:52:43;;;;;;;8.73;6.93;;;19.90;39.30;;;21.39;34.08;97370.13;5055422;28;20134;-46
2023/06/18 04:55:11;;;;;;;7.65;6.20;;;20.00;39.10;;;21.40;33.85;97374.47;5058025;28;20434;-46
2023/06/18 04:57:40;;;;;;;8.05;6.20;;;20.00;39.20;;;21.45;33.56;97369.22;5079271;28;20051;-47
2023/06/18 05:00:08;;;;;;;7.80;6.43;;;20.00;39.10;;;21.48;33.52;97376.03;5058895;28;20052;-47
2023/06/18 05:02:39;;;;;;;8.02;6.38;;;20.00;39.10;;;21.49;33.52;97364.16;5052911;28;20051;-46
2023/06/18 05:05:08;;;;;;;7.72;6.72;;;20.00;39.10;;;21.51;33.64;97364.75;5059019;28;20044;-46
2023/06/18 05:07:36;;;;;;;7.65;6.90;;;20.00;39.20;;;21.53;33.79;97373.44;5051623;28;20055;-47
2023/06/18 05:10:04;;;;;;;8.25;6.72;;;20.00;39.20;;;21.53;34.15;97378.88;5059422;28;20048;-46
2023/06/18 05:12:34;;;;;;;8.32;6.63;;;20.10;39.30;;;21.53;33.99;97368.03;5052294;28;20044;-46
2023/06/18 05:15:03;;;;;;;8.75;7.10;;;20.10;39.60;;;21.51;34.07;97365.56;5063018;28;20459;-46
2023/06/18 05:17:30;;;;;;;8.85;6.88;;;20.00;39.60;;;21.53;34.22;97371.56;5054881;28;20041;-46
2023/06/18 05:20:01;;;;;;;7.03;6.32;;;20.10;39.80;;;21.55;34.18;97365.91;5052124;28;20530;-46
2023/06/18 05:22:30;;;;;;;8.25;7.22;;;20.00;40.00;;;21.55;34.46;97379.44;5052307;28;20044;-45
2023/06/18 05:25:01;;;;;;;7.80;6.90;;;20.10;40.90;;;21.55;34.38;97372.13;5081885;28;20047;-46
2023/06/18 05:27:30;;;;;;;8.38;7.00;;;20.20;40.20;;;21.48;34.76;97385.00;5055065;28;20045;-46
2023/06/18 05:29:59;;;;;;;8.52;7.28;;;20.20;40.50;;;21.50;35.22;97382.03;5058559;28;20500;-44
2023/06/18 05:32:27;;;;;;;7.82;7.07;;;20.20;40.90;;;21.49;34.89;97381.22;5085324;28;20048;-46
2023/06/18 05:34:55;;;;;;;8.45;6.70;;;20.10;41.10;;;21.48;35.53;97385.00;5064000;28;20063;-46
2023/06/18 05:37:23;;;;;;;8.50;7.50;;;20.10;41.30;;;21.48;35.52;97386.88;5055180;28;20044;-46
2023/06/18 05:39:51;;;;;;;7.45;6.60;;;20.20;41.40;;;21.47;35.60;97387.94;5057359;28;20044;-46
2023/06/18 05:42:22;;;;;;;8.05;7.25;;;20.20;41.60;;;21.52;35.34;97394.28;5060743;28;20044;-46
2023/06/18 05:44:49;;;;;;;7.75;6.95;;;20.20;41.50;;;21.53;35.56;97389.69;5056555;28;20044;-46
2023/06/18 05:47:17;;;;;;;10.07;6.88;;;20.20;41.60;;;21.57;35.95;97394.38;5060640;28;20051;-46
2023/06/18 05:49:45;;;;;;;8.20;7.40;;;20.20;41.90;;;21.60;36.05;97393.09;5056113;28;20051;-46
2023/06/18 05:52:12;;;;;;;10.48;7.70;;;20.10;42.20;;;21.61;35.72;97398.25;5061926;28;20519;-46
2023/06/18 05:54:40;;;;;;;7.53;6.72;;;20.20;42.20;;;21.67;35.81;97385.66;5081412;28;20530;-48
2023/06/18 05:57:07;;;;;;;8.02;7.20;;;20.20;42.30;;;21.71;36.00;97391.44;5061924;28;20056;-45
2023/06/18 05:59:35;;;;;;;8.48;6.65;;;20.20;42.40;;;21.75;35.80;97392.59;5055149;28;20048;-46
2023/06/18 06:02:10;;;;;;;8.85;7.03;;;20.40;42.40;;;21.76;36.33;97397.78;5054908;28;20093;-46
2023/06/18 06:04:38;;;;;;;7.13;6.43;;;20.40;42.30;;;21.79;35.96;97393.75;5063041;28;20052;-48
2023/06/18 06:07:05;;;;;;;8.93;7.70;;;20.50;42.40;;;21.85;36.00;97400.94;5064684;28;20040;-48
2023/06/18 06:09:33;;;;;;;9.05;7.25;;;20.60;42.20;;;21.93;35.86;97399.75;5035193;28;20524;-47
2023/06/18 06:12:01;;;;;;;6.97;6.28;;;20.70;42.20;;;22.01;35.89;97405.59;5053918;28;20051;-47
2023/06/18 06:14:29;;;;;;;7.97;6.60;;;20.70;42.00;;;22.06;35.53;97396.75;5053985;28;20040;-44
2023/06/18 06:16:57;;;;;;;9.23;6.70;;;20.80;41.60;;;22.09;35.96;97398.97;5054492;28;20049;-49
2023/06/18 06:19:26;;;;;;;7.32;6.63;;;20.90;41.60;;;22.15;35.89;97400.72;5054880;28;20056;-48
2023/06/18 06:21:54;;;;;;;7.45;6.72;;;20.90;41.60;;;22.20;35.82;97402.72;5072409;28;20052;-47
2023/06/18 06:24:23;;;;;;;7.53;6.07;;;21.00;41.60;;;22.26;36.22;97407.22;5054345;28;20064;-50
2023/06/18 06:26:50;;;;;;;7.55;6.75;;;21.00;41.80;;;22.32;36.49;97395.38;5054207;28;20127;-45
2023/06/18 06:29:18;;;;;;;9.20;7.38;;;21.00;43.20;;;22.40;36.86;97399.59;5053936;28;20036;-47
2023/06/18 06:31:47;;;;;;;9.10;7.07;;;21.10;43.80;;;22.44;37.03;97402.66;5060313;28;20527;-48
2023/06/18 06:34:15;;;;;;;9.43;7.22;;;21.10;43.90;;;22.44;37.28;97395.31;5037460;28;20041;-46
2023/06/18 06:36:43;;;;;;;7.80;7.05;;;21.20;43.80;;;22.49;36.91;97403.56;5039860;28;20052;-46
2023/06/18 06:39:13;;;;;;;9.13;7.78;;;21.20;43.50;;;22.54;36.75;97392.78;5033102;28;20041;-47
2023/06/18 06:41:41;;;;;;;7.85;7.05;;;21.30;43.20;;;22.59;35.89;97401.03;5057587;28;20049;-46
2023/06/18 06:44:10;;;;;;;7.18;6.47;;;21.30;42.00;;;22.63;35.60;97405.97;5043894;28;20055;-45
2023/06/18 06:46:52;;;;;;;8.95;6.75;;;21.40;41.40;;;22.67;35.87;97405.22;5052462;28;20445;-47
2023/06/18 06:49:54;;;;;;;8.70;7.30;;;21.40;41.20;;;22.74;35.61;97407.78;5009245;28;20049;-47
2023/06/18 06:52:29;;;;;;;7.57;6.78;;;21.60;40.80;;;22.79;35.01;97414.13;5045362;28;20045;-47
2023/06/18 06:54:56;;;;;;;7.70;6.90;;;21.60;40.60;;;22.84;35.37;97407.13;5054413;28;20071;-46
2023/06/18 06:57:24;;;;;;;7.25;6.55;;;21.60;40.50;;;22.89;35.40;97402.59;5058480;28;20040;-47
2023/06/18 06:59:53;;;;;;;9.43;7.15;;;21.70;40.60;;;22.95;34.93;97403.53;5038144;28;20052;-45
2023/06/18 07:02:20;;;;;;;8.65;6.78;;;21.80;40.70;;;23.01;34.88;97402.53;5083041;28;20076;-46
2023/06/18 07:04:48;;;;;;;7.88;6.43;;;21.80;39.80;;;23.08;34.76;97402.41;5055915;28;20048;-49
2023/06/18 07:07:16;;;;;;;7.82;7.07;;;22.00;39.60;;;23.13;34.38;97405.22;5082531;28;20036;-46
2023/06/18 07:09:44;;;;;;;7.07;6.32;;;22.00;40.10;;;23.19;34.07;97409.66;5081802;28;20503;-46
2023/06/18 07:12:11;;;;;;;10.27;7.05;;;22.10;39.10;;;23.25;34.09;97403.22;5061713;28;20044;-46
2023/06/18 07:14:39;;;;;;;9.18;6.05;;;22.20;38.90;;;23.32;33.78;97414.75;5078151;28;20044;-46
2023/06/18 07:17:07;;;;;;;7.63;6.57;;;22.20;38.60;;;23.38;33.51;97419.16;5078919;28;20047;-47
2023/06/18 07:19:34;;;;;;;7.30;6.38;;;22.30;38.00;;;23.44;33.26;97414.63;5078571;28;20048;-46
2023/06/18 07:22:02;;;;;;;7.03;6.22;;;22.30;37.50;;;23.51;33.46;97414.44;5081361;28;20518;-47
2023/06/18 07:24:30;;;;;;;7.45;5.90;;;22.40;38.20;;;23.57;32.70;97413.44;5082762;28;20040;-47
2023/06/18 07:26:57;;;;;;;7.07;6.38;;;22.50;37.00;;;23.61;33.06;97414.59;5079836;28;20059;-50
2023/06/18 07:29:25;;;;;;;6.28;5.68;;;22.50;37.60;;;23.67;32.65;97416.31;5078948;28;20040;-48
2023/06/18 07:31:52;;;;;;;7.93;6.47;;;22.60;37.30;;;23.74;32.52;97416.13;5079014;28;20401;-46
2023/06/18 07:34:20;;;;;;;7.57;6.88;;;22.70;37.20;;;23.79;32.87;97416.22;5081906;28;20041;-47
2023/06/18 07:36:49;;;;;;;10.77;6.90;;;22.70;37.10;;;23.86;32.59;97416.03;5052172;28;20053;-46
2023/06/18 07:39:17;;;;;;;7.43;6.00;;;22.80;37.00;;;23.90;32.71;97415.25;5070599;28;20389;-45
2023/06/18 07:41:49;;;;;;;9.07;6.30;;;22.80;37.00;;;23.96;32.59;97413.44;5069976;28;20056;-47
2023/06/18 07:44:17;;;;;;;9.18;6.07;;;22.80;37.00;;;24.04;32.14;97412.16;5079750;28;20055;-46
2023/06/18 07:46:44;;;;;;;6.97;5.95;;;22.90;36.50;;;24.09;32.03;97402.19;5078976;28;20048;-47
2023/06/18 07:49:12;;;;;;;12.48;6.55;;;23.00;36.10;;;24.14;31.80;97402.25;5082701;28;20047;-47
2023/06/18 07:51:40;;;;;;;7.50;5.85;;;23.10;35.90;;;24.21;31.52;97412.91;5057657;28;20269;-46
2023/06/18 07:54:07;;;;;;;7.70;6.72;;;23.10;35.10;;;24.28;31.30;97413.56;5082511;28;20037;-48
2023/06/18 07:56:35;;;;;;;7.93;6.15;;;23.20;35.10;;;24.35;30.68;97418.81;5082917;28;20040;-47
2023/06/18 07:59:03;;;;;;;8.82;6.82;;;23.30;34.50;;;24.40;30.83;97415.31;5080792;28;20071;-47
2023/06/18 08:01:30;;;;;;;7.97;6.93;;;23.30;34.60;;;24.47;30.58;97407.78;5079784;28;20123;-47
2023/06/18 08:03:58;;;;;;;7.35;6.60;;;23.40;34.20;;;24.53;30.84;97410.31;5053301;28;20527;-47
2023/06/18 08:06:26;;;;;;;8.10;6.50;;;23.40;34.70;;;24.60;30.74;97407.38;5079219;28;20040;-47
2023/06/18 08:08:53;;;;;;;7.07;6.38;;;23.50;34.90;;;24.65;31.03;97401.97;5079852;28;20044;-46
2023/06/18 08:11:21;;;;;;;6.05;5.45;;;23.60;35.00;;;24.71;30.93;97397.41;5082062;28;20040;-47
2023/06/18 08:13:49;;;;;;;7.38;6.22;;;23.60;35.00;;;24.76;31.05;97398.28;5057335;28;20048;-46
2023/06/18 08:16:17;;;;;;;7.50;6.40;;;23.70;35.20;;;24.82;31.18;97398.34;5066508;28;20419;-47
2023/06/18 08:18:45;;;;;;;8.27;6.47;;;23.70;35.50;;;24.87;31.58;97401.09;5040451;28;20048;-45
2023/06/18 08:21:12;;;;;;;6.97;5.90;;;23.80;35.90;;;24.92;31.49;97403.88;5082061;28;20487;-46
2023/06/18 08:23:40;;;;;;;7.72;6.75;;;23.90;35.90;;;24.99;31.51;97398.19;5082763;28;20415;-45
2023/06/18 08:26:07;;;;;;;8.88;6.72;;;23.90;35.90;;;25.08;31.61;97399.34;5080024;28;20530;-46
2023/06/18 08:28:35;;;;;;;6.82;6.15;;;24.00;36.10;;;25.16;31.31;97393.41;5078533;28;20039;-49
2023/06/18 08:31:03;;;;;;;8.23;6.88;;;24.10;35.90;;;25.25;31.24;97400.06;5080144;28;20507;-47
2023/06/18 08:33:30;;;;;;;7.15;6.45;;;24.20;35.60;;;25.30;31.73;97400.09;5082601;28;20036;-46
2023/06/18 08:35:59;;;;;;;8.05;6.43;;;24.30;35.90;;;25.39;31.52;97394.16;5082452;28;20044;-45
2023/06/18 08:38:26;;;;;;;8.80;7.20;;;24.40;35.70;;;25.46;31.06;97384.66;5079138;28;20040;-46
2023/06/18 08:40:55;;;;;;;8.43;6.25;;;24.40;35.30;;;25.52;31.09;97386.31;5088324;28;20052;-45
2023/06/18 08:43:26;;;;;;;8.95;6.60;;;24.50;35.10;;;25.59;30.52;97393.44;5080049;28;20047;-45
2023/06/18 08:45:55;;;;;;;8.60;7.10;;;24.50;34.40;;;25.65;30.69;97393.22;5088374;28;20048;-47
2023/06/18 08:48:27;;;;;;;10.85;7.63;;;24.60;34.70;;;25.72;30.43;97395.69;5067298;28;20044;-50
2023/06/18 08:51:09;;;;;;;9.63;6.45;;;24.60;34.70;;;25.78;30.20;97396.53;5082870;28;20514;-50
2023/06/18 08:53:44;;;;;;;7.80;7.03;;;24.70;33.70;;;25.84;30.22;97388.13;5053809;28;20071;-51
2023/06/18 08:56:15;;;;;;;7.18;6.47;;;24.80;33.90;;;25.88;30.16;97389.25;5079857;28;20036;-49
2023/06/18 08:58:50;;;;;;;7.53;6.28;;;24.80;33.70;;;25.94;30.14;97384.66;5084336;28;20400;-46
2023/06/18 09:01:19;;;;;;;7.70;6.60;;;24.90;33.50;;;26.03;29.69;97382.22;5086366;28;20055;-47
2023/06/18 09:03:48;;;;;;;7.53;6.00;;;25.00;34.00;;;26.09;29.29;97381.16;5041231;28;20053;-47
2023/06/18 09:06:16;;;;;;;7.65;5.80;;;25.10;32.90;;;26.15;29.81;97385.53;5065428;28;20053;-48
2023/06/18 09:08:46;;;;;;;6.55;5.93;;;25.20;33.00;;;26.22;28.95;97388.03;5055645;28;20059;-47
2023/06/18 09:11:15;;;;;;;7.35;6.60;;;25.20;31.60;;;26.27;28.68;97377.13;5058004;28;20550;-48
2023/06/18 09:13:44;;;;;;;6.75;6.05;;;25.20;32.00;;;26.33;28.96;97382.31;5086461;28;20043;-47
2023/06/18 09:16:12;;;;;;;7.00;6.40;;;25.30;31.90;;;26.38;28.29;97384.22;5084143;28;20047;-49
2023/06/18 09:18:40;;;;;;;7.55;6.55;;;25.40;31.20;;;26.43;27.79;97383.44;5056819;28;20049;-50
2023/06/18 09:21:08;;;;;;;7.20;6.50;;;25.40;31.00;;;26.50;28.18;97376.63;5056021;28;20041;-48
2023/06/18 09:23:35;;;;;;;7.78;6.30;;;25.50;30.80;;;26.55;27.25;97375.00;5085039;28;20768;-49
2023/06/18 09:26:03;;;;;;;8.65;6.55;;;25.50;30.00;;;26.57;27.60;97370.91;5084626;28;20063;-48
2023/06/18 09:28:31;;;;;;;8.00;6.38;;;25.60;30.10;;;26.60;27.37;97369.56;5081894;28;20053;-46
2023/06/18 09:31:01;;;;;;;6.40;5.75;;;25.60;29.90;;;26.64;26.77;97362.50;5082074;28;20052;-47
2023/06/18 09:33:34;;;;;;;8.07;6.43;;;25.60;29.50;;;26.68;26.59;97369.84;5069345;28;20040;-49
2023/06/18 09:36:04;;;;;;;;;;;25.70;29.20;;;26.70;27.37;97373.13;5085307;28;20499;-48
2023/06/18 09:38:37;;;;;;;6.97;6.28;;;25.70;28.60;;;26.79;27.01;97367.13;5056115;28;19928;-48
2023/06/18 09:41:17;;;;;;;9.40;6.70;;;25.70;29.50;;;26.81;26.80;97365.78;5082242;28;20052;-48
2023/06/18 09:43:48;;;;;;;6.70;6.00;;;25.70;28.60;;;26.86;25.83;97354.81;5085006;28;20036;-47
2023/06/18 09:46:18;;;;;;;7.38;6.50;;;25.80;28.80;;;26.87;26.34;97351.03;5032020;28;20045;-50
2023/06/18 09:48:47;;;;;;;6.40;5.80;;;25.80;28.80;;;26.94;26.16;97352.66;5067516;28;20045;-47
2023/06/18 09:51:25;;;;;;;7.50;6.80;;;25.90;28.70;;;26.99;25.81;97355.38;5038775;28;20408;-47
2023/06/18 09:53:59;;;;;;;6.95;6.30;;;25.90;28.70;;;27.06;26.07;97355.91;5038445;28;20048;-48
2023/06/18 09:56:27;;;;;;;7.68;6.25;;;26.00;28.70;;;27.13;25.30;97356.44;5064705;28;20036;-49
2023/06/18 09:58:55;;;;;;;7.38;6.63;;;26.10;28.60;;;27.19;25.35;97358.06;5072967;28;20046;-46
2023/06/18 10:01:23;;;;;;;6.63;5.93;;;26.10;28.50;;;27.23;25.38;97363.81;5072913;28;20057;-49
2023/06/18 10:03:51;;;;;;;8.48;6.57;;;26.20;28.10;;;27.24;24.78;97351.81;5081703;28;20058;-47
2023/06/18 10:06:22;;;;;;;7.40;6.70;;;26.30;27.70;;;27.27;25.02;97357.53;5083388;28;20385;-48
2023/06/18 10:08:53;;;;;;;8.82;7.20;;;26.30;27.80;;;27.34;24.75;97354.53;5083974;28;20048;-47
2023/06/18 10:11:22;;;;;;;8.88;6.07;;;26.30;27.90;;;27.39;25.25;97350.97;5081964;28;20044;-50
2023/06/18 10:14:02;;;;;;;6.97;5.68;;;26.40;28.00;;;27.43;25.14;97339.22;5081368;28;20523;-48
2023/06/18 10:16:34;;;;;;;8.65;7.13;;;26.50;27.50;;;27.50;24.71;97347.91;5081211;28;20063;-47
2023/06/18 10:19:37;;;;;;;6.70;6.00;;;26.50;27.70;;;27.55;24.94;97347.09;5054962;28;20496;-48
2023/06/18 10:22:07;;;;;;;6.80;6.10;;;26.60;26.70;;;27.62;24.60;97350.34;5051706;28;20500;-47
2023/06/18 10:24:43;;;;;;;7.00;6.30;;;26.60;27.30;;;27.65;24.28;97346.25;5080725;28;20048;-48
2023/06/18 10:27:11;;;;;;;8.80;6.25;;;26.60;27.00;;;27.72;24.45;97348.69;5055605;28;20041;-47
2023/06/18 10:29:39;;;;;;;8.60;6.75;;;26.70;27.20;;;27.76;24.17;97338.81;5084680;28;20044;-46